createdAt,value
2023-08-14T00:01:20.587Z,2.97
2023-08-14T00:03:47.347Z,3.30
2023-08-14T00:06:14.037Z,3.43
2023-08-14T00:08:40.730Z,3.83
2023-08-14T00:11:07.405Z,3.40
2023-08-14T00:13:49.885Z,3.50
2023-08-14T00:16:17.197Z,3.47
2023-08-14T00:18:44.115Z,2.90
2023-08-14T00:21:11.073Z,3.23
2023-08-14T00:23:37.843Z,3.40
2023-08-14T00:26:04.728Z,3.33
2023-08-14T00:28:31.730Z,3.00
2023-08-14T00:30:58.413Z,3.20
2023-08-14T00:33:25.095Z,3.30
2023-08-14T00:35:51.781Z,3.40
2023-08-14T00:38:18.489Z,2.73
2023-08-14T00:40:45.363Z,3.30
2023-08-14T00:43:12.049Z,3.30
2023-08-14T00:45:46.197Z,3.20
2023-08-14T00:48:15.259Z,3.40
2023-08-14T00:50:43.200Z,3.53
2023-08-14T00:53:11.439Z,3.23
2023-08-14T00:55:38.635Z,3.27
2023-08-14T00:58:06.592Z,3.90
2023-08-14T01:00:36.388Z,3.53
2023-08-14T01:03:03.939Z,3.00
2023-08-14T01:05:32.536Z,6.73
2023-08-14T01:07:59.291Z,3.40
2023-08-14T01:10:43.909Z,3.40
2023-08-14T01:13:41.556Z,4.13
2023-08-14T01:16:14.321Z,3.70
2023-08-14T01:18:43.527Z,3.70
2023-08-14T01:21:12.429Z,3.73
2023-08-14T01:23:56.267Z,3.93
2023-08-14T01:26:24.073Z,3.80
2023-08-14T01:28:51.528Z,3.87
2023-08-14T01:31:18.244Z,3.30
2023-08-14T01:33:44.938Z,3.60
2023-08-14T01:36:37.352Z,3.47
2023-08-14T01:39:11.055Z,3.80
2023-08-14T01:42:11.442Z,3.67
2023-08-14T01:44:41.536Z,3.27
2023-08-14T01:47:13.010Z,3.50
2023-08-14T01:49:41.301Z,3.50
2023-08-14T01:52:08.788Z,3.23
2023-08-14T01:54:35.539Z,3.20
2023-08-14T01:57:02.775Z,3.40
2023-08-14T01:59:43.272Z,3.37
2023-08-14T02:02:12.282Z,3.17
2023-08-14T02:04:39.041Z,3.10
2023-08-14T02:07:12.286Z,3.60
2023-08-14T02:09:39.373Z,4.03
2023-08-14T02:12:06.502Z,3.80
2023-08-14T02:14:33.246Z,3.50
2023-08-14T02:16:59.969Z,3.70
2023-08-14T02:19:26.642Z,3.37
2023-08-14T02:21:53.308Z,3.67
2023-08-14T02:24:19.994Z,3.57
2023-08-14T02:26:46.660Z,3.53
2023-08-14T02:29:13.499Z,3.13
2023-08-14T02:31:41.027Z,3.33
2023-08-14T02:34:07.781Z,3.17
2023-08-14T02:36:34.440Z,2.93
2023-08-14T02:39:01.113Z,3.60
2023-08-14T02:41:29.541Z,2.90
2023-08-14T02:43:56.258Z,3.20
2023-08-14T02:46:22.965Z,3.30
2023-08-14T02:48:49.624Z,3.13
2023-08-14T02:51:16.581Z,2.90
2023-08-14T02:53:43.271Z,2.90
2023-08-14T02:56:09.962Z,3.20
2023-08-14T02:58:36.917Z,3.13
2023-08-14T03:01:05.276Z,3.87
2023-08-14T03:03:32.052Z,3.50
2023-08-14T03:05:59.497Z,3.73
2023-08-14T03:08:26.984Z,3.00
2023-08-14T03:10:54.354Z,3.30
2023-08-14T03:13:21.221Z,3.90
2023-08-14T03:15:48.082Z,3.50
2023-08-14T03:18:14.780Z,3.30
2023-08-14T03:20:41.497Z,3.50
2023-08-14T03:23:08.238Z,3.93
2023-08-14T03:25:34.963Z,4.20
2023-08-14T03:28:01.657Z,3.90
2023-08-14T03:30:28.342Z,3.50
2023-08-14T03:32:55.043Z,3.43
2023-08-14T03:35:21.836Z,3.33
2023-08-14T03:37:48.505Z,3.33
2023-08-14T03:40:15.969Z,3.60
2023-08-14T03:42:42.858Z,4.07
2023-08-14T03:45:10.026Z,3.30
2023-08-14T03:47:36.806Z,2.97
2023-08-14T03:50:04.239Z,4.03
2023-08-14T03:52:30.887Z,3.80
2023-08-14T03:54:57.556Z,3.50
2023-08-14T03:57:24.414Z,3.50
2023-08-14T03:59:51.224Z,3.40
2023-08-14T04:02:18.258Z,3.43
2023-08-14T04:04:45.528Z,3.03
2023-08-14T04:07:12.205Z,3.23
2023-08-14T04:09:38.935Z,4.10
2023-08-14T04:12:05.945Z,3.30
2023-08-14T04:14:34.044Z,3.47
2023-08-14T04:17:00.722Z,3.20
2023-08-14T04:19:27.951Z,3.30
2023-08-14T04:21:54.690Z,3.40
2023-08-14T04:24:21.440Z,3.23
2023-08-14T04:26:48.099Z,3.93
2023-08-14T04:29:16.496Z,3.63
2023-08-14T04:31:43.412Z,4.43
2023-08-14T04:34:11.489Z,3.33
2023-08-14T04:36:38.429Z,3.33
2023-08-14T04:39:05.874Z,3.90
2023-08-14T04:41:32.690Z,3.37
2023-08-14T04:43:59.388Z,3.27
2023-08-14T04:46:41.243Z,3.63
2023-08-14T04:49:11.986Z,3.00
2023-08-14T04:51:38.693Z,3.23
2023-08-14T04:54:05.566Z,2.70
2023-08-14T04:56:32.700Z,3.00
2023-08-14T04:58:59.521Z,3.20
2023-08-14T05:01:26.284Z,3.10
2023-08-14T05:03:53.185Z,3.17
2023-08-14T05:06:20.632Z,3.17
2023-08-14T05:08:47.306Z,2.90
2023-08-14T05:11:13.945Z,2.97
2023-08-14T05:13:45.274Z,2.90
2023-08-14T05:16:12.106Z,2.80
2023-08-14T05:18:38.971Z,3.10
2023-08-14T05:21:05.766Z,2.90
2023-08-14T05:23:32.424Z,2.90
2023-08-14T05:25:59.154Z,2.73
2023-08-14T05:28:25.919Z,3.00
2023-08-14T05:30:52.857Z,2.37
2023-08-14T05:33:19.496Z,2.70
2023-08-14T05:35:49.726Z,2.87
2023-08-14T05:38:16.465Z,2.93
2023-08-14T05:40:43.160Z,2.70
2023-08-14T05:43:12.687Z,2.70
2023-08-14T05:45:42.190Z,3.03
2023-08-14T05:48:08.958Z,2.57
2023-08-14T05:50:36.598Z,2.70
2023-08-14T05:53:05.036Z,2.67
2023-08-14T05:55:43.676Z,2.70
2023-08-14T05:58:10.511Z,2.50
2023-08-14T06:00:38.203Z,2.40
2023-08-14T06:03:05.612Z,2.33
2023-08-14T06:05:35.338Z,2.70
2023-08-14T06:08:02.423Z,2.70
2023-08-14T06:10:29.271Z,2.53
2023-08-14T06:12:56.079Z,3.50
2023-08-14T06:15:22.957Z,2.70
2023-08-14T06:17:50.094Z,2.97
2023-08-14T06:20:17.036Z,3.07
2023-08-14T06:22:45.809Z,2.90
2023-08-14T06:25:13.549Z,2.77
2023-08-14T06:27:41.227Z,5.57
2023-08-14T06:30:10.202Z,2.87
2023-08-14T06:32:38.323Z,3.53
2023-08-14T06:35:06.047Z,3.30
2023-08-14T06:37:33.071Z,3.10
2023-08-14T06:39:59.711Z,3.27
2023-08-14T06:42:26.474Z,2.93
2023-08-14T06:44:53.157Z,2.87
2023-08-14T06:47:19.858Z,2.93
2023-08-14T06:49:46.622Z,3.07
2023-08-14T06:52:14.760Z,2.77
2023-08-14T06:54:41.626Z,3.00
2023-08-14T06:57:09.195Z,2.90
2023-08-14T06:59:36.128Z,2.80
2023-08-14T07:02:02.887Z,2.70
2023-08-14T07:04:29.659Z,2.60
2023-08-14T07:06:56.424Z,2.70
2023-08-14T07:09:23.127Z,2.30
2023-08-14T07:11:49.860Z,2.70
2023-08-14T07:14:16.564Z,2.43
2023-08-14T07:16:43.355Z,2.57
2023-08-14T07:19:10.121Z,2.97
2023-08-14T07:21:36.807Z,2.97
2023-08-14T07:24:03.712Z,3.40
2023-08-14T07:26:30.416Z,2.90
2023-08-14T07:28:57.167Z,2.67
2023-08-14T07:31:24.062Z,3.43
2023-08-14T07:33:50.817Z,3.13
2023-08-14T07:36:17.618Z,3.43
2023-08-14T07:38:44.624Z,3.13
2023-08-14T07:41:11.450Z,7.70
2023-08-14T07:43:38.225Z,3.77
2023-08-14T07:46:04.916Z,2.93
2023-08-14T07:48:31.680Z,3.40
2023-08-14T07:50:58.369Z,3.33
2023-08-14T07:53:25.079Z,6.93
2023-08-14T07:55:51.831Z,3.67
2023-08-14T07:58:19.496Z,3.20
2023-08-14T08:00:46.559Z,3.20
2023-08-14T08:03:13.610Z,3.53
2023-08-14T08:05:40.560Z,3.23
2023-08-14T08:08:07.390Z,3.23
2023-08-14T08:10:34.749Z,2.90
2023-08-14T08:13:01.713Z,3.10
2023-08-14T08:15:28.356Z,5.70
2023-08-14T08:17:57.898Z,3.17
2023-08-14T08:20:25.736Z,3.30
2023-08-14T08:22:53.906Z,3.23
2023-08-14T08:25:20.737Z,3.93
2023-08-14T08:27:47.899Z,3.30
2023-08-14T08:30:14.717Z,2.77
2023-08-14T08:32:41.617Z,2.60
2023-08-14T08:35:09.018Z,2.60
2023-08-14T08:37:35.790Z,2.87
2023-08-14T08:40:05.510Z,3.13
2023-08-14T08:42:32.549Z,2.90
2023-08-14T08:45:03.753Z,3.00
2023-08-14T08:47:32.181Z,3.00
2023-08-14T08:50:04.555Z,3.53
2023-08-14T08:52:33.950Z,2.70
2023-08-14T08:55:02.327Z,2.57
2023-08-14T08:57:29.804Z,2.90
2023-08-14T08:59:59.761Z,2.90
2023-08-14T09:02:27.257Z,3.60
2023-08-14T09:04:54.191Z,3.80
2023-08-14T09:07:21.083Z,7.37
2023-08-14T09:09:47.846Z,2.90
2023-08-14T09:12:14.573Z,2.83
2023-08-14T09:14:43.562Z,3.67
2023-08-14T09:17:11.680Z,2.70
2023-08-14T09:19:41.444Z,2.63
2023-08-14T09:22:08.617Z,4.43
2023-08-14T09:24:36.653Z,3.20
2023-08-14T09:27:04.142Z,2.90
2023-08-14T09:29:32.287Z,3.13
2023-08-14T09:32:00.297Z,2.67
2023-08-14T09:34:27.173Z,3.47
2023-08-14T09:36:56.266Z,3.00
2023-08-14T09:39:24.790Z,3.30
2023-08-14T09:41:51.548Z,2.97
2023-08-14T09:44:23.795Z,2.60
2023-08-14T09:46:55.809Z,2.77
2023-08-14T09:49:23.050Z,2.60
2023-08-14T09:52:00.029Z,2.87
2023-08-14T09:54:35.420Z,2.50
2023-08-14T09:57:08.474Z,2.97
2023-08-14T09:59:36.793Z,2.80
2023-08-14T10:02:06.453Z,2.23
2023-08-14T10:04:35.439Z,2.73
2023-08-14T10:07:03.267Z,2.50
2023-08-14T10:09:32.159Z,2.70
2023-08-14T10:12:07.191Z,2.20
2023-08-14T10:14:36.862Z,2.43
2023-08-14T10:17:07.557Z,2.33
2023-08-14T10:19:35.514Z,2.47
2023-08-14T10:22:07.241Z,2.27
2023-08-14T10:24:37.989Z,3.73
2023-08-14T10:27:06.126Z,2.60
2023-08-14T10:29:35.384Z,2.37
2023-08-14T10:32:03.197Z,2.23
2023-08-14T10:34:31.761Z,2.53
2023-08-14T10:36:58.485Z,2.63
2023-08-14T10:39:36.340Z,2.37
2023-08-14T10:42:10.132Z,2.20
2023-08-14T10:44:38.437Z,2.10
2023-08-14T10:47:11.779Z,2.43
2023-08-14T10:49:50.715Z,2.40
2023-08-14T10:52:20.128Z,2.03
2023-08-14T10:54:53.825Z,4.20
2023-08-14T10:57:28.524Z,2.20
2023-08-14T10:59:56.913Z,2.43
2023-08-14T11:02:25.955Z,2.53
2023-08-14T11:05:02.750Z,2.17
2023-08-14T11:07:34.098Z,1.90
2023-08-14T11:10:04.986Z,2.00
2023-08-14T11:12:35.508Z,6.30
2023-08-14T11:15:02.450Z,1.70
2023-08-14T11:17:29.325Z,1.80
2023-08-14T11:19:56.067Z,1.93
2023-08-14T11:22:23.317Z,1.77
2023-08-14T11:24:50.038Z,1.97
2023-08-14T11:27:16.808Z,2.07
2023-08-14T11:29:45.371Z,2.00
2023-08-14T11:32:19.418Z,2.00
2023-08-14T11:34:46.536Z,1.87
2023-08-14T11:37:13.948Z,2.20
2023-08-14T11:39:43.847Z,1.80
2023-08-14T11:42:10.512Z,2.17
2023-08-14T11:44:37.275Z,1.60
2023-08-14T11:47:04.680Z,2.00
2023-08-14T11:49:35.203Z,3.50
2023-08-14T11:52:04.359Z,2.03
2023-08-14T11:54:32.944Z,1.97
2023-08-14T11:57:03.759Z,2.43
2023-08-14T11:59:30.755Z,2.20
2023-08-14T12:01:57.975Z,2.20
2023-08-14T12:04:24.631Z,2.00
2023-08-14T12:06:51.346Z,1.70
2023-08-14T12:09:18.190Z,2.03
2023-08-14T12:11:46.013Z,3.03
2023-08-14T12:14:12.677Z,2.37
2023-08-14T12:16:40.850Z,2.47
2023-08-14T12:19:13.435Z,2.03
2023-08-14T12:21:40.642Z,2.20
2023-08-14T12:24:07.846Z,2.33
2023-08-14T12:26:41.561Z,2.20
2023-08-14T12:29:08.960Z,2.10
2023-08-14T12:31:36.282Z,2.20
2023-08-14T12:34:06.994Z,2.07
2023-08-14T12:36:35.378Z,1.80
2023-08-14T12:39:02.206Z,2.00
2023-08-14T12:41:29.051Z,2.83
2023-08-14T12:43:55.971Z,2.17
2023-08-14T12:46:22.734Z,2.67
2023-08-14T12:48:49.464Z,2.13
2023-08-14T12:51:16.160Z,2.90
2023-08-14T12:53:42.858Z,3.10
2023-08-14T12:56:09.953Z,2.27
2023-08-14T12:58:36.648Z,2.00
2023-08-14T13:01:05.468Z,2.17
2023-08-14T13:06:02.879Z,2.30
2023-08-14T13:08:29.697Z,2.50
2023-08-14T13:10:56.469Z,2.20
2023-08-14T13:13:25.071Z,2.17
2023-08-14T13:15:52.108Z,2.30
2023-08-14T13:18:18.871Z,2.03
2023-08-14T13:20:45.603Z,2.77
2023-08-14T13:23:12.266Z,3.47
2023-08-14T13:25:42.414Z,2.13
2023-08-14T13:28:10.167Z,2.23
2023-08-14T13:30:37.028Z,2.53
2023-08-14T13:33:04.180Z,3.70
2023-08-14T13:35:31.348Z,2.30
2023-08-14T13:37:59.333Z,1.70
2023-08-14T13:40:26.080Z,2.00
2023-08-14T13:42:52.857Z,2.00
2023-08-14T13:45:19.632Z,6.50
2023-08-14T13:47:54.643Z,3.37
2023-08-14T13:52:54.080Z,1.87
2023-08-14T13:55:20.999Z,2.20
2023-08-14T13:57:47.644Z,2.30
2023-08-14T14:00:14.492Z,1.97
2023-08-14T14:02:41.251Z,2.97
2023-08-14T14:05:08.230Z,2.10
2023-08-14T14:07:45.725Z,2.03
2023-08-14T14:10:13.714Z,2.40
2023-08-14T14:12:47.531Z,1.87
2023-08-14T14:15:22.848Z,2.70
2023-08-14T14:17:49.566Z,2.27
2023-08-14T14:20:16.821Z,1.93
2023-08-14T14:22:43.922Z,2.67
2023-08-14T14:25:10.951Z,2.27
2023-08-14T14:27:38.479Z,2.13
2023-08-14T14:30:06.303Z,1.80
2023-08-14T14:32:33.128Z,1.97
2023-08-14T14:34:59.861Z,1.87
2023-08-14T14:37:26.544Z,1.80
2023-08-14T14:39:53.305Z,2.00
2023-08-14T14:42:20.731Z,2.33
2023-08-14T14:44:48.001Z,2.63
2023-08-14T14:47:14.822Z,1.90
2023-08-14T14:49:41.529Z,1.73
2023-08-14T14:52:08.201Z,2.10
2023-08-14T14:54:34.850Z,1.73
2023-08-14T14:57:01.506Z,2.13
2023-08-14T14:59:28.224Z,3.20
2023-08-14T15:01:54.961Z,2.53
2023-08-14T15:04:21.873Z,1.60
2023-08-14T15:06:48.860Z,1.63
2023-08-14T15:09:15.589Z,1.80
2023-08-14T15:11:42.230Z,1.57
2023-08-14T15:14:09.000Z,2.00
2023-08-14T15:16:35.692Z,1.70
2023-08-14T15:19:02.348Z,1.50
2023-08-14T15:21:34.883Z,1.80
2023-08-14T15:24:01.777Z,1.90
2023-08-14T15:26:28.515Z,1.50
2023-08-14T15:28:55.212Z,1.60
2023-08-14T15:31:21.855Z,1.70
2023-08-14T15:33:50.404Z,1.67
2023-08-14T15:36:18.935Z,1.73
2023-08-14T15:38:46.391Z,1.70
2023-08-14T15:41:13.200Z,1.43
2023-08-14T15:43:41.969Z,1.73
2023-08-14T15:46:08.734Z,1.63
2023-08-14T15:48:35.425Z,2.17
2023-08-14T15:51:02.054Z,2.30
2023-08-14T15:53:28.699Z,1.93
2023-08-14T15:55:55.369Z,2.03
2023-08-14T15:58:22.020Z,1.83
2023-08-14T16:00:48.846Z,1.50
2023-08-14T16:03:15.512Z,1.67
2023-08-14T16:05:42.194Z,1.90
2023-08-14T16:08:08.871Z,2.27
2023-08-14T16:10:35.651Z,1.70
2023-08-14T16:13:02.320Z,2.37
2023-08-14T16:15:28.991Z,1.90
2023-08-14T16:17:55.706Z,1.73
2023-08-14T16:20:22.395Z,1.60
2023-08-14T16:22:49.536Z,1.33
2023-08-14T16:25:16.224Z,1.60
2023-08-14T16:27:42.879Z,1.30
2023-08-14T16:30:09.953Z,1.50
2023-08-14T16:32:36.612Z,1.77
2023-08-14T16:35:04.853Z,1.90
2023-08-14T16:37:31.549Z,2.70
2023-08-14T16:39:58.274Z,1.83
2023-08-14T16:42:24.976Z,1.77
2023-08-14T16:44:51.673Z,1.73
2023-08-14T16:47:18.681Z,1.70
2023-08-14T16:49:45.617Z,1.67
2023-08-14T16:52:12.270Z,1.90
2023-08-14T16:54:38.911Z,1.47
2023-08-14T16:57:06.146Z,1.40
2023-08-14T16:59:32.998Z,1.60
2023-08-14T17:01:59.738Z,1.70
2023-08-14T17:04:27.605Z,1.50
2023-08-14T17:06:54.376Z,2.20
2023-08-14T17:09:21.168Z,1.97
2023-08-14T17:11:47.833Z,1.90
2023-08-14T17:14:16.916Z,2.03
2023-08-14T17:16:43.705Z,2.03
2023-08-14T17:19:10.388Z,1.90
2023-08-14T17:21:37.291Z,1.93
2023-08-14T17:24:04.313Z,2.03
2023-08-14T17:26:30.961Z,2.43
2023-08-14T17:28:57.623Z,3.17
2023-08-14T17:31:24.389Z,3.27
2023-08-14T17:33:51.071Z,2.83
2023-08-14T17:36:18.206Z,2.60
2023-08-14T17:38:44.923Z,3.27
2023-08-14T17:41:11.653Z,2.70
2023-08-14T17:43:38.452Z,2.60
2023-08-14T17:46:05.246Z,2.33
2023-08-14T17:48:32.196Z,2.30
2023-08-14T17:50:58.906Z,2.60
2023-08-14T17:53:25.680Z,2.00
2023-08-14T17:55:52.416Z,2.43
2023-08-14T17:58:20.999Z,2.50
2023-08-14T18:00:52.571Z,2.27
2023-08-14T18:03:19.497Z,2.20
2023-08-14T18:05:50.535Z,2.30
2023-08-14T18:08:17.382Z,2.40
2023-08-14T18:10:44.332Z,2.70
2023-08-14T18:13:11.111Z,2.17
2023-08-14T18:15:39.060Z,2.47
2023-08-14T18:18:07.136Z,2.70
2023-08-14T18:20:33.973Z,2.70
2023-08-14T18:23:01.273Z,3.83
2023-08-14T18:25:28.173Z,5.70
2023-08-14T18:27:54.864Z,3.67
2023-08-14T18:30:21.576Z,2.80
2023-08-14T18:32:49.693Z,2.93
2023-08-14T18:35:16.381Z,3.00
2023-08-14T18:37:43.098Z,2.80
2023-08-14T18:40:10.580Z,3.10
2023-08-14T18:42:37.398Z,3.23
2023-08-14T18:45:04.434Z,3.57
2023-08-14T18:47:33.432Z,3.90
2023-08-14T18:50:00.242Z,2.90
2023-08-14T18:52:27.335Z,3.43
2023-08-14T18:54:54.004Z,3.73
2023-08-14T18:57:20.988Z,4.80
2023-08-14T18:59:48.610Z,5.70
2023-08-14T19:02:15.496Z,5.90
2023-08-14T19:04:43.994Z,9.80
2023-08-14T19:07:12.481Z,5.70
2023-08-14T19:09:39.271Z,5.47
2023-08-14T19:12:07.653Z,5.33
2023-08-14T19:14:35.266Z,8.80
2023-08-14T19:17:02.425Z,5.90
2023-08-14T19:19:29.190Z,5.97
2023-08-14T19:21:56.028Z,7.60
2023-08-14T19:24:22.710Z,5.77
2023-08-14T19:26:49.375Z,6.10
2023-08-14T19:29:16.052Z,8.20
2023-08-14T19:31:42.726Z,5.70
2023-08-14T19:34:09.495Z,4.50
2023-08-14T19:36:36.322Z,4.80
2023-08-14T19:39:03.827Z,5.10
2023-08-14T19:41:30.538Z,4.17
2023-08-14T19:43:57.988Z,4.97
2023-08-14T19:46:25.177Z,4.00
2023-08-14T19:48:52.000Z,4.47
2023-08-14T19:51:18.661Z,4.60
2023-08-14T19:53:45.421Z,4.10
2023-08-14T19:56:12.123Z,5.53
2023-08-14T19:58:38.777Z,4.60
2023-08-14T20:01:05.550Z,4.10
2023-08-14T20:03:32.476Z,4.10
2023-08-14T20:05:59.345Z,4.53
2023-08-14T20:08:26.410Z,4.00
2023-08-14T20:11:01.835Z,4.33
2023-08-14T20:13:28.648Z,4.03
2023-08-14T20:15:55.450Z,4.37
2023-08-14T20:18:22.943Z,4.67
2023-08-14T20:20:50.846Z,4.20
2023-08-14T20:23:17.628Z,4.47
2023-08-14T20:25:47.609Z,4.40
2023-08-14T20:28:14.526Z,4.10
2023-08-14T20:30:43.021Z,4.50
2023-08-14T20:33:11.359Z,4.33
2023-08-14T20:35:45.714Z,6.77
2023-08-14T20:38:13.381Z,4.63
2023-08-14T20:40:40.486Z,4.10
2023-08-14T20:43:12.887Z,4.97
2023-08-14T20:45:40.669Z,4.03
2023-08-14T20:48:10.889Z,5.60
2023-08-14T20:50:37.592Z,4.80
2023-08-14T20:53:05.062Z,4.50
2023-08-14T20:55:31.997Z,5.50
2023-08-14T20:57:58.782Z,7.33
2023-08-14T21:00:25.562Z,4.00
2023-08-14T21:02:52.510Z,3.97
2023-08-14T21:05:19.288Z,4.27
2023-08-14T21:07:45.996Z,4.90
2023-08-14T21:10:12.765Z,7.07
2023-08-14T21:12:39.493Z,4.30
2023-08-14T21:15:06.563Z,6.67
2023-08-14T21:17:33.256Z,4.87
2023-08-14T21:20:00.061Z,4.40
2023-08-14T21:22:26.690Z,4.70
2023-08-14T21:24:53.354Z,4.27
2023-08-14T21:27:20.278Z,4.10
2023-08-14T21:29:47.112Z,5.00
2023-08-14T21:32:13.874Z,4.50
2023-08-14T21:34:41.630Z,4.57
2023-08-14T21:37:08.746Z,4.63
2023-08-14T21:39:35.619Z,4.40
2023-08-14T21:42:02.395Z,4.73
2023-08-14T21:44:29.438Z,4.20
2023-08-14T21:46:56.244Z,5.40
2023-08-14T21:49:22.975Z,6.80
2023-08-14T21:51:49.681Z,5.07
2023-08-14T21:54:18.915Z,5.80
2023-08-14T21:56:46.457Z,4.63
2023-08-14T21:59:13.169Z,4.23
2023-08-14T22:01:40.113Z,4.97
2023-08-14T22:04:06.931Z,5.43
2023-08-14T22:06:33.694Z,4.67
2023-08-14T22:09:00.425Z,6.80
2023-08-14T22:11:27.585Z,4.60
2023-08-14T22:13:56.376Z,4.23
2023-08-14T22:16:24.276Z,4.90
2023-08-14T22:18:51.108Z,4.50
2023-08-14T22:21:18.139Z,4.43
2023-08-14T22:23:45.074Z,5.07
2023-08-14T22:26:11.720Z,4.50
2023-08-14T22:28:40.148Z,4.23
2023-08-14T22:31:07.577Z,6.57
2023-08-14T22:33:34.280Z,5.00
2023-08-14T22:36:00.981Z,4.67
2023-08-14T22:38:27.715Z,4.57
2023-08-14T22:40:54.397Z,4.40
2023-08-14T22:43:21.075Z,5.47
2023-08-14T22:48:19.453Z,4.73
2023-08-14T22:50:46.761Z,4.23
2023-08-14T22:53:13.489Z,4.43
2023-08-14T22:55:40.198Z,5.23
2023-08-14T22:58:06.858Z,5.13
2023-08-14T23:00:33.642Z,4.77
2023-08-14T23:03:00.411Z,4.80
2023-08-14T23:05:27.696Z,5.27
2023-08-14T23:07:54.438Z,4.60
2023-08-14T23:10:21.176Z,5.63
2023-08-14T23:12:47.994Z,4.77
2023-08-14T23:15:14.731Z,6.17
2023-08-14T23:17:41.455Z,4.63
2023-08-14T23:20:08.652Z,4.90
2023-08-14T23:22:35.349Z,5.27
2023-08-14T23:25:02.195Z,4.77
2023-08-14T23:27:28.960Z,6.37
2023-08-14T23:29:55.656Z,4.03
2023-08-14T23:32:22.399Z,4.33
2023-08-14T23:34:49.163Z,4.40
2023-08-14T23:37:15.843Z,4.23
2023-08-14T23:39:42.571Z,4.93
2023-08-14T23:42:09.309Z,4.57
2023-08-14T23:44:35.985Z,6.73
2023-08-14T23:47:04.457Z,4.20
2023-08-14T23:49:31.228Z,4.70
2023-08-14T23:51:57.922Z,4.10
2023-08-14T23:54:24.572Z,4.50
2023-08-14T23:56:51.261Z,4.20
2023-08-14T23:59:17.969Z,4.47
